sensor_id;sensor_type;location;lat;lon;timestamp;pressure;altitude;pressure_sealevel;temperature;humidity
43281;BME280;62175;49.416;8.690;2023-02-26T00:02:02;100215.38;;;7.29;36.53
43281;BME280;62175;49.416;8.690;2023-02-26T00:04:30;100213.98;;;7.45;36.59
43281;BME280;62175;49.416;8.690;2023-02-26T00:06:57;100219.21;;;7.13;37.00
43281;BME280;62175;49.416;8.690;2023-02-26T00:09:24;100217.56;;;7.37;37.25
43281;BME280;62175;49.416;8.690;2023-02-26T00:11:53;100216.75;;;7.27;36.79
43281;BME280;62175;49.416;8.690;2023-02-26T00:14:20;100217.24;;;7.43;37.43
43281;BME280;62175;49.416;8.690;2023-02-26T00:16:53;100216.83;;;7.51;37.12
43281;BME280;62175;49.416;8.690;2023-02-26T00:19:23;100216.15;;;7.36;36.84
43281;BME280;62175;49.416;8.690;2023-02-26T00:21:50;100214.19;;;7.40;37.15
43281;BME280;62175;49.416;8.690;2023-02-26T00:24:17;100219.24;;;7.37;37.72
43281;BME280;62175;49.416;8.690;2023-02-26T00:26:45;100222.20;;;7.58;36.92
43281;BME280;62175;49.416;8.690;2023-02-26T00:29:13;100225.16;;;7.12;37.20
43281;BME280;62175;49.416;8.690;2023-02-26T00:31:40;100226.31;;;7.81;37.67
43281;BME280;62175;49.416;8.690;2023-02-26T00:34:11;100225.75;;;7.23;36.45
43281;BME280;62175;49.416;8.690;2023-02-26T00:36:43;100226.00;;;7.31;37.35
43281;BME280;62175;49.416;8.690;2023-02-26T00:39:22;100229.48;;;7.58;36.45
43281;BME280;62175;49.416;8.690;2023-02-26T00:41:55;100231.30;;;7.39;36.58
43281;BME280;62175;49.416;8.690;2023-02-26T00:44:22;100229.59;;;7.48;37.24
43281;BME280;62175;49.416;8.690;2023-02-26T00:46:55;100231.30;;;7.23;37.00
43281;BME280;62175;49.416;8.690;2023-02-26T00:49:37;100234.73;;;7.36;37.54
43281;BME280;62175;49.416;8.690;2023-02-26T00:52:13;100240.59;;;7.34;36.70
43281;BME280;62175;49.416;8.690;2023-02-26T00:54:44;100238.38;;;7.34;36.87
43281;BME280;62175;49.416;8.690;2023-02-26T00:57:12;100243.14;;;7.22;36.92
43281;BME280;62175;49.416;8.690;2023-02-26T00:59:40;100241.48;;;7.22;37.29
43281;BME280;62175;49.416;8.690;2023-02-26T01:02:07;100244.76;;;7.37;37.09
43281;BME280;62175;49.416;8.690;2023-02-26T01:04:35;100244.55;;;7.40;37.08
43281;BME280;62175;49.416;8.690;2023-02-26T01:07:03;100243.20;;;7.24;36.74
43281;BME280;62175;49.416;8.690;2023-02-26T01:09:34;100241.32;;;6.89;36.92
43281;BME280;62175;49.416;8.690;2023-02-26T01:12:06;100243.34;;;7.42;38.00
43281;BME280;62175;49.416;8.690;2023-02-26T01:14:34;100241.99;;;6.94;36.82
43281;BME280;62175;49.416;8.690;2023-02-26T01:17:07;100241.70;;;6.95;36.21
43281;BME280;62175;49.416;8.690;2023-02-26T01:19:42;100238.49;;;7.10;36.14
43281;BME280;62175;49.416;8.690;2023-02-26T01:22:14;100242.21;;;7.60;37.41
43281;BME280;62175;49.416;8.690;2023-02-26T01:24:43;100238.00;;;6.87;36.41
43281;BME280;62175;49.416;8.690;2023-02-26T01:27:12;100233.80;;;7.18;37.10
43281;BME280;62175;49.416;8.690;2023-02-26T01:29:40;100236.54;;;7.24;37.00
43281;BME280;62175;49.416;8.690;2023-02-26T01:32:11;100231.87;;;7.41;37.21
43281;BME280;62175;49.416;8.690;2023-02-26T01:34:45;100228.93;;;7.01;36.91
43281;BME280;62175;49.416;8.690;2023-02-26T01:37:21;100230.40;;;6.93;36.93
43281;BME280;62175;49.416;8.690;2023-02-26T01:40:02;100233.86;;;7.35;36.71
43281;BME280;62175;49.416;8.690;2023-02-26T01:42:37;100235.15;;;6.78;36.67
43281;BME280;62175;49.416;8.690;2023-02-26T01:45:12;100235.26;;;7.15;37.15
43281;BME280;62175;49.416;8.690;2023-02-26T01:47:47;100232.12;;;7.14;37.19
43281;BME280;62175;49.416;8.690;2023-02-26T01:50:20;100235.79;;;6.96;37.23
43281;BME280;62175;49.416;8.690;2023-02-26T01:53:23;100236.10;;;7.43;37.45
43281;BME280;62175;49.416;8.690;2023-02-26T01:55:55;100235.59;;;7.27;37.55
43281;BME280;62175;49.416;8.690;2023-02-26T01:58:25;100239.21;;;7.12;37.50
43281;BME280;62175;49.416;8.690;2023-02-26T02:00:53;100237.22;;;7.11;37.58
43281;BME280;62175;49.416;8.690;2023-02-26T02:03:22;100232.09;;;6.92;37.74
43281;BME280;62175;49.416;8.690;2023-02-26T02:05:55;100231.16;;;6.74;37.67
43281;BME280;62175;49.416;8.690;2023-02-26T02:08:24;100231.52;;;6.95;37.30
43281;BME280;62175;49.416;8.690;2023-02-26T02:10:52;100233.78;;;7.01;37.42
43281;BME280;62175;49.416;8.690;2023-02-26T02:13:28;100231.17;;;6.99;37.80
43281;BME280;62175;49.416;8.690;2023-02-26T02:16:09;100229.99;;;6.43;37.63
43281;BME280;62175;49.416;8.690;2023-02-26T02:18:43;100231.18;;;7.01;38.14
43281;BME280;62175;49.416;8.690;2023-02-26T02:21:27;100234.32;;;7.02;37.98
43281;BME280;62175;49.416;8.690;2023-02-26T23:02:58;101189.73;;;6.58;34.66
43281;BME280;62175;49.416;8.690;2023-02-26T23:05:25;101191.84;;;6.69;34.76
43281;BME280;62175;49.416;8.690;2023-02-26T23:07:52;101188.84;;;6.80;36.41
43281;BME280;62175;49.416;8.690;2023-02-26T23:10:21;101183.85;;;6.79;36.60
43281;BME280;62175;49.416;8.690;2023-02-26T23:12:49;101184.84;;;6.98;34.66
43281;BME280;62175;49.416;8.690;2023-02-26T23:15:16;101193.62;;;6.55;35.16
43281;BME280;62175;49.416;8.690;2023-02-26T23:17:44;101193.45;;;6.58;35.24
43281;BME280;62175;49.416;8.690;2023-02-26T23:20:12;101187.12;;;6.32;35.28
43281;BME280;62175;49.416;8.690;2023-02-26T23:22:40;101191.83;;;7.19;35.40
43281;BME280;62175;49.416;8.690;2023-02-26T23:25:09;101187.78;;;6.97;34.84
43281;BME280;62175;49.416;8.690;2023-02-26T23:27:38;101186.45;;;6.46;35.53
43281;BME280;62175;49.416;8.690;2023-02-26T23:30:08;101189.41;;;6.55;35.28
43281;BME280;62175;49.416;8.690;2023-02-26T23:32:36;101192.53;;;6.66;35.80
43281;BME280;62175;49.416;8.690;2023-02-26T23:35:05;101192.05;;;6.73;35.02
43281;BME280;62175;49.416;8.690;2023-02-26T23:37:34;101199.15;;;6.86;35.30
43281;BME280;62175;49.416;8.690;2023-02-26T23:40:01;101195.10;;;6.73;35.11
43281;BME280;62175;49.416;8.690;2023-02-26T23:42:30;101190.18;;;7.06;35.34
43281;BME280;62175;49.416;8.690;2023-02-26T23:44:57;101199.20;;;6.74;35.31
43281;BME280;62175;49.416;8.690;2023-02-26T23:47:24;101193.12;;;6.83;35.34
43281;BME280;62175;49.416;8.690;2023-02-26T23:49:53;101199.52;;;6.50;34.84
43281;BME280;62175;49.416;8.690;2023-02-26T23:52:20;101198.74;;;6.79;35.31
43281;BME280;62175;49.416;8.690;2023-02-26T23:54:47;101200.19;;;6.62;36.14
43281;BME280;62175;49.416;8.690;2023-02-26T23:57:15;101201.86;;;6.75;35.26
43281;BME280;62175;49.416;8.690;2023-02-26T23:59:42;101206.69;;;6.86;35.68
